sensor_id;sensor_type;location;lat;lon;timestamp;pressure;altitude;pressure_sealevel;temperature;humidity
59106;BME280;44891;50.204;8.132;2023-07-16T00:01:06;97895.38;;;19.75;95.62
59106;BME280;44891;50.204;8.132;2023-07-16T00:05:08;97865.25;;;19.52;96.32
59106;BME280;44891;50.204;8.132;2023-07-16T00:09:10;97848.09;;;19.59;97.58
59106;BME280;44891;50.204;8.132;2023-07-16T00:13:12;97857.66;;;19.60;95.52
59106;BME280;44891;50.204;8.132;2023-07-16T00:17:15;97882.59;;;19.41;93.95
59106;BME280;44891;50.204;8.132;2023-07-16T00:21:17;97895.00;;;19.46;93.16
59106;BME280;44891;50.204;8.132;2023-07-16T00:25:19;97900.38;;;19.32;90.91
59106;BME280;44891;50.204;8.132;2023-07-16T00:29:21;97894.38;;;19.26;93.62
59106;BME280;44891;50.204;8.132;2023-07-16T00:33:24;97896.63;;;19.11;93.34
59106;BME280;44891;50.204;8.132;2023-07-16T00:37:26;97911.31;;;19.08;92.56
59106;BME280;44891;50.204;8.132;2023-07-16T00:41:28;97912.34;;;19.21;91.30
59106;BME280;44891;50.204;8.132;2023-07-16T00:45:31;97917.97;;;19.19;90.77
59106;BME280;44891;50.204;8.132;2023-07-16T00:49:35;97926.75;;;19.20;91.60
59106;BME280;44891;50.204;8.132;2023-07-16T00:53:37;97923.59;;;19.18;93.61
59106;BME280;44891;50.204;8.132;2023-07-16T00:57:40;97918.34;;;19.26;91.71
59106;BME280;44891;50.204;8.132;2023-07-16T01:01:43;97925.66;;;19.21;90.26
59106;BME280;44891;50.204;8.132;2023-07-16T01:05:51;97915.97;;;19.02;90.75
59106;BME280;44891;50.204;8.132;2023-07-16T01:09:56;97909.19;;;18.96;92.20
59106;BME280;44891;50.204;8.132;2023-07-16T01:13:59;97917.03;;;19.01;91.34
59106;BME280;44891;50.204;8.132;2023-07-16T01:18:03;97901.34;;;18.78;90.44
59106;BME280;44891;50.204;8.132;2023-07-16T01:22:15;97923.59;;;18.82;91.61
59106;BME280;44891;50.204;8.132;2023-07-16T01:26:32;97917.72;;;18.71;89.43
59106;BME280;44891;50.204;8.132;2023-07-16T01:30:39;97923.91;;;18.66;90.29
59106;BME280;44891;50.204;8.132;2023-07-16T01:34:41;97939.06;;;18.66;90.69
59106;BME280;44891;50.204;8.132;2023-07-16T01:38:43;97936.72;;;18.51;90.74
59106;BME280;44891;50.204;8.132;2023-07-16T01:42:46;97939.38;;;18.37;91.52
59106;BME280;44891;50.204;8.132;2023-07-16T01:51:08;97951.38;;;18.34;91.85
59106;BME280;44891;50.204;8.132;2023-07-16T01:55:12;97962.31;;;18.33;91.49
59106;BME280;44891;50.204;8.132;2023-07-16T01:59:13;97967.38;;;18.02;92.48
59106;BME280;44891;50.204;8.132;2023-07-16T02:03:15;97965.63;;;18.11;92.71
59106;BME280;44891;50.204;8.132;2023-07-16T02:07:19;97964.84;;;18.10;91.38
59106;BME280;44891;50.204;8.132;2023-07-16T02:11:21;97966.50;;;18.06;92.61
59106;BME280;44891;50.204;8.132;2023-07-16T02:15:22;97974.38;;;17.98;92.51
59106;BME280;44891;50.204;8.132;2023-07-16T02:19:24;97970.03;;;18.02;91.95
59106;BME280;44891;50.204;8.132;2023-07-16T02:23:28;97981.78;;;17.82;92.44
59106;BME280;44891;50.204;8.132;2023-07-16T02:27:30;97980.34;;;17.71;93.88
59106;BME280;44891;50.204;8.132;2023-07-16T02:31:32;97983.56;;;17.67;95.24
59106;BME280;44891;50.204;8.132;2023-07-16T02:35:34;97985.94;;;17.69;94.64
59106;BME280;44891;50.204;8.132;2023-07-16T02:39:37;97991.53;;;17.67;93.29
59106;BME280;44891;50.204;8.132;2023-07-16T02:43:39;97997.50;;;17.59;92.78
59106;BME280;44891;50.204;8.132;2023-07-16T02:47:41;98005.56;;;17.54;93.55
59106;BME280;44891;50.204;8.132;2023-07-16T02:51:43;98012.59;;;17.45;93.97
59106;BME280;44891;50.204;8.132;2023-07-16T02:55:46;98012.25;;;17.52;92.70
59106;BME280;44891;50.204;8.132;2023-07-16T02:59:48;98013.69;;;17.44;93.55
59106;BME280;44891;50.204;8.132;2023-07-16T03:03:50;98027.88;;;17.34;94.63
59106;BME280;44891;50.204;8.132;2023-07-16T03:07:52;98031.38;;;17.30;95.18
59106;BME280;44891;50.204;8.132;2023-07-16T03:11:55;98028.44;;;17.31;94.15
59106;BME280;44891;50.204;8.132;2023-07-16T03:15:57;98038.75;;;17.14;95.20
59106;BME280;44891;50.204;8.132;2023-07-16T03:20:00;98043.97;;;17.00;95.72
59106;BME280;44891;50.204;8.132;2023-07-16T03:24:05;98046.66;;;16.95;95.79
59106;BME280;44891;50.204;8.132;2023-07-16T03:28:08;98050.69;;;16.64;97.21
59106;BME280;44891;50.204;8.132;2023-07-16T03:32:10;98047.00;;;16.65;97.52
59106;BME280;44891;50.204;8.132;2023-07-16T03:36:12;98056.53;;;16.66;96.76
59106;BME280;44891;50.204;8.132;2023-07-16T03:40:16;98058.34;;;16.70;96.75
59106;BME280;44891;50.204;8.132;2023-07-16T03:44:22;98068.91;;;16.75;96.30
59106;BME280;44891;50.204;8.132;2023-07-16T03:48:24;98066.94;;;16.57;97.02
59106;BME280;44891;50.204;8.132;2023-07-16T03:52:26;98065.69;;;16.49;97.47
59106;BME280;44891;50.204;8.132;2023-07-16T03:56:29;98058.59;;;16.45;97.38
59106;BME280;44891;50.204;8.132;2023-07-16T04:00:32;98060.34;;;16.54;96.14
59106;BME280;44891;50.204;8.132;2023-07-16T04:04:34;98066.75;;;16.48;97.91
59106;BME280;44891;50.204;8.132;2023-07-16T04:08:38;98069.91;;;16.50;97.19
59106;BME280;44891;50.204;8.132;2023-07-16T04:12:40;98085.00;;;16.55;97.33
59106;BME280;44891;50.204;8.132;2023-07-16T04:16:43;98100.25;;;16.68;94.74
59106;BME280;44891;50.204;8.132;2023-07-16T04:20:45;98091.22;;;16.69;94.43
59106;BME280;44891;50.204;8.132;2023-07-16T04:24:47;98096.44;;;16.79;93.98
59106;BME280;44891;50.204;8.132;2023-07-16T04:28:48;98100.09;;;16.83;94.29
59106;BME280;44891;50.204;8.132;2023-07-16T04:32:52;98103.41;;;16.99;93.19
59106;BME280;44891;50.204;8.132;2023-07-16T04:36:53;98097.91;;;17.15;91.96
59106;BME280;44891;50.204;8.132;2023-07-16T04:40:55;98108.47;;;17.20;91.88
59106;BME280;44891;50.204;8.132;2023-07-16T04:44:57;98115.47;;;17.34;93.08
59106;BME280;44891;50.204;8.132;2023-07-16T04:49:00;98110.22;;;17.29;89.33
59106;BME280;44891;50.204;8.132;2023-07-16T04:53:02;98125.25;;;17.39;92.47
59106;BME280;44891;50.204;8.132;2023-07-16T04:57:05;98126.75;;;17.45;91.18
59106;BME280;44891;50.204;8.132;2023-07-16T05:01:07;98125.34;;;17.53;89.18
59106;BME280;44891;50.204;8.132;2023-07-16T05:05:10;98128.06;;;17.66;86.40
59106;BME280;44891;50.204;8.132;2023-07-16T05:09:12;98137.59;;;17.73;86.33
59106;BME280;44891;50.204;8.132;2023-07-16T05:13:14;98139.66;;;17.76;86.87
59106;BME280;44891;50.204;8.132;2023-07-16T05:17:17;98145.25;;;17.74;83.79
59106;BME280;44891;50.204;8.132;2023-07-16T05:21:20;98150.75;;;17.83;85.55
59106;BME280;44891;50.204;8.132;2023-07-16T05:25:22;98157.72;;;17.98;82.73
59106;BME280;44891;50.204;8.132;2023-07-16T05:29:23;98159.06;;;17.76;80.74
59106;BME280;44891;50.204;8.132;2023-07-16T05:33:25;98177.38;;;17.78;82.32
59106;BME280;44891;50.204;8.132;2023-07-16T05:37:28;98174.56;;;17.88;80.89
59106;BME280;44891;50.204;8.132;2023-07-16T05:41:30;98186.94;;;17.98;80.21
59106;BME280;44891;50.204;8.132;2023-07-16T05:45:32;98193.59;;;17.95;79.10
59106;BME280;44891;50.204;8.132;2023-07-16T05:49:34;98202.16;;;17.92;79.28
59106;BME280;44891;50.204;8.132;2023-07-16T05:53:37;98203.88;;;18.02;78.85
59106;BME280;44891;50.204;8.132;2023-07-16T05:57:39;98198.00;;;18.05;77.67
59106;BME280;44891;50.204;8.132;2023-07-16T06:01:41;98165.97;;;17.96;77.65
59106;BME280;44891;50.204;8.132;2023-07-16T06:05:44;98193.75;;;18.23;78.22
59106;BME280;44891;50.204;8.132;2023-07-16T06:09:58;98196.06;;;18.29;77.29
59106;BME280;44891;50.204;8.132;2023-07-16T06:14:00;98199.72;;;18.33;76.37
59106;BME280;44891;50.204;8.132;2023-07-16T06:18:02;98173.00;;;18.06;75.06
59106;BME280;44891;50.204;8.132;2023-07-16T06:22:04;98211.91;;;18.34;75.87
59106;BME280;44891;50.204;8.132;2023-07-16T06:26:07;98210.47;;;18.42;75.37
59106;BME280;44891;50.204;8.132;2023-07-16T06:30:09;98222.72;;;18.43;74.15
59106;BME280;44891;50.204;8.132;2023-07-16T06:34:11;98216.16;;;18.35;72.09
59106;BME280;44891;50.204;8.132;2023-07-16T06:38:13;98215.34;;;18.54;73.05
59106;BME280;44891;50.204;8.132;2023-07-16T06:42:16;98214.66;;;18.67;72.72
59106;BME280;44891;50.204;8.132;2023-07-16T06:46:18;98220.19;;;18.70;71.65
59106;BME280;44891;50.204;8.132;2023-07-16T06:50:20;98201.13;;;18.82;71.35
59106;BME280;44891;50.204;8.132;2023-07-16T06:54:22;98201.69;;;18.79;69.55
59106;BME280;44891;50.204;8.132;2023-07-16T06:58:31;98209.13;;;18.96;69.38
59106;BME280;44891;50.204;8.132;2023-07-16T07:02:34;98214.56;;;19.05;68.23
59106;BME280;44891;50.204;8.132;2023-07-16T07:06:35;98210.09;;;19.00;68.45
59106;BME280;44891;50.204;8.132;2023-07-16T07:10:37;98215.72;;;18.98;66.42
59106;BME280;44891;50.204;8.132;2023-07-16T07:14:41;98219.91;;;19.18;67.04
59106;BME280;44891;50.204;8.132;2023-07-16T07:18:43;98210.34;;;19.17;66.42
59106;BME280;44891;50.204;8.132;2023-07-16T07:22:45;98221.19;;;19.21;64.08
59106;BME280;44891;50.204;8.132;2023-07-16T07:26:47;98230.94;;;19.12;65.80
59106;BME280;44891;50.204;8.132;2023-07-16T07:30:50;98227.31;;;19.21;64.08
59106;BME280;44891;50.204;8.132;2023-07-16T07:34:52;98225.94;;;19.24;62.94
59106;BME280;44891;50.204;8.132;2023-07-16T07:38:54;98218.31;;;19.17;62.54
59106;BME280;44891;50.204;8.132;2023-07-16T07:42:56;98217.75;;;19.34;62.02
59106;BME280;44891;50.204;8.132;2023-07-16T07:46:59;98220.84;;;19.41;62.33
59106;BME280;44891;50.204;8.132;2023-07-16T07:51:01;98218.38;;;19.59;60.41
59106;BME280;44891;50.204;8.132;2023-07-16T07:55:03;98229.53;;;19.61;59.93
59106;BME280;44891;50.204;8.132;2023-07-16T07:59:05;98227.84;;;19.65;59.57
59106;BME280;44891;50.204;8.132;2023-07-16T08:03:08;98223.19;;;19.56;58.78
59106;BME280;44891;50.204;8.132;2023-07-16T08:07:10;98221.63;;;19.83;57.34
59106;BME280;44891;50.204;8.132;2023-07-16T08:11:12;98226.72;;;19.93;56.85
59106;BME280;44891;50.204;8.132;2023-07-16T08:15:14;98226.34;;;19.86;55.74
59106;BME280;44891;50.204;8.132;2023-07-16T08:19:17;98220.03;;;19.96;57.55
59106;BME280;44891;50.204;8.132;2023-07-16T08:23:19;98217.34;;;20.09;56.86
59106;BME280;44891;50.204;8.132;2023-07-16T08:27:21;98222.38;;;19.97;55.63
59106;BME280;44891;50.204;8.132;2023-07-16T08:31:23;98222.56;;;20.15;55.47
59106;BME280;44891;50.204;8.132;2023-07-16T08:35:26;98226.94;;;20.33;54.99
59106;BME280;44891;50.204;8.132;2023-07-16T08:39:28;98229.59;;;20.47;54.25
59106;BME280;44891;50.204;8.132;2023-07-16T08:43:30;98227.84;;;20.64;53.22
59106;BME280;44891;50.204;8.132;2023-07-16T08:47:32;98237.25;;;20.62;53.41
59106;BME280;44891;50.204;8.132;2023-07-16T08:51:35;98241.03;;;20.61;53.11
59106;BME280;44891;50.204;8.132;2023-07-16T08:55:37;98245.75;;;20.86;53.77
59106;BME280;44891;50.204;8.132;2023-07-16T08:59:39;98237.09;;;20.81;53.06
59106;BME280;44891;50.204;8.132;2023-07-16T09:03:42;98253.56;;;20.60;53.58
59106;BME280;44891;50.204;8.132;2023-07-16T09:07:45;98249.41;;;20.99;54.37
59106;BME280;44891;50.204;8.132;2023-07-16T09:11:47;98241.59;;;21.03;52.67
59106;BME280;44891;50.204;8.132;2023-07-16T09:15:50;98244.50;;;21.15;53.81
59106;BME280;44891;50.204;8.132;2023-07-16T09:19:52;98242.03;;;21.58;51.69
59106;BME280;44891;50.204;8.132;2023-07-16T09:23:56;98246.03;;;21.78;52.05
59106;BME280;44891;50.204;8.132;2023-07-16T09:27:58;98246.66;;;21.75;51.20
59106;BME280;44891;50.204;8.132;2023-07-16T09:32:02;98241.38;;;21.92;50.98
59106;BME280;44891;50.204;8.132;2023-07-16T09:36:05;98243.34;;;21.78;49.50
59106;BME280;44891;50.204;8.132;2023-07-16T09:40:09;98250.06;;;21.58;49.88
59106;BME280;44891;50.204;8.132;2023-07-16T09:44:13;98263.75;;;21.65;49.77
59106;BME280;44891;50.204;8.132;2023-07-16T09:48:14;98255.66;;;21.79;49.05
59106;BME280;44891;50.204;8.132;2023-07-16T09:52:16;98254.56;;;21.97;48.38
59106;BME280;44891;50.204;8.132;2023-07-16T09:56:20;98260.38;;;21.91;48.99
59106;BME280;44891;50.204;8.132;2023-07-16T10:00:22;98259.03;;;22.11;48.28
59106;BME280;44891;50.204;8.132;2023-07-16T10:04:24;98270.06;;;22.18;48.79
59106;BME280;44891;50.204;8.132;2023-07-16T10:08:32;98258.31;;;21.79;48.14
59106;BME280;44891;50.204;8.132;2023-07-16T10:12:36;98258.63;;;21.78;50.02
59106;BME280;44891;50.204;8.132;2023-07-16T10:16:39;98255.25;;;22.12;49.25
59106;BME280;44891;50.204;8.132;2023-07-16T10:20:41;98252.13;;;22.70;46.80
59106;BME280;44891;50.204;8.132;2023-07-16T10:24:44;98252.94;;;22.36;46.90
59106;BME280;44891;50.204;8.132;2023-07-16T10:28:47;98256.72;;;22.52;47.68
59106;BME280;44891;50.204;8.132;2023-07-16T10:32:50;98247.75;;;22.48;47.51
59106;BME280;44891;50.204;8.132;2023-07-16T10:36:52;98246.00;;;22.70;46.64
59106;BME280;44891;50.204;8.132;2023-07-16T10:40:55;98242.06;;;22.67;47.99
59106;BME280;44891;50.204;8.132;2023-07-16T10:44:59;98237.50;;;22.94;46.86
59106;BME280;44891;50.204;8.132;2023-07-16T10:49:01;98249.59;;;23.09;47.41
59106;BME280;44891;50.204;8.132;2023-07-16T10:53:03;98256.31;;;23.32;46.54
59106;BME280;44891;50.204;8.132;2023-07-16T10:57:05;98254.34;;;23.50;47.32
59106;BME280;44891;50.204;8.132;2023-07-16T11:01:09;98243.69;;;23.32;46.51
59106;BME280;44891;50.204;8.132;2023-07-16T11:05:11;98253.66;;;24.00;45.60
59106;BME280;44891;50.204;8.132;2023-07-16T11:09:13;98251.84;;;23.83;45.38
59106;BME280;44891;50.204;8.132;2023-07-16T11:13:15;98253.78;;;24.03;45.16
59106;BME280;44891;50.204;8.132;2023-07-16T11:17:18;98250.47;;;24.27;44.72
59106;BME280;44891;50.204;8.132;2023-07-16T11:21:20;98248.81;;;24.44;44.51
59106;BME280;44891;50.204;8.132;2023-07-16T11:25:23;98258.66;;;24.31;44.13
59106;BME280;44891;50.204;8.132;2023-07-16T11:29:25;98260.69;;;23.83;44.47
59106;BME280;44891;50.204;8.132;2023-07-16T11:33:35;98246.28;;;24.18;44.60
59106;BME280;44891;50.204;8.132;2023-07-16T11:37:37;98251.78;;;24.21;43.79
59106;BME280;44891;50.204;8.132;2023-07-16T11:41:39;98253.56;;;24.59;43.33
59106;BME280;44891;50.204;8.132;2023-07-16T11:45:47;98245.09;;;24.90;42.32
59106;BME280;44891;50.204;8.132;2023-07-16T11:49:50;98251.81;;;24.63;42.67
59106;BME280;44891;50.204;8.132;2023-07-16T11:53:52;98249.31;;;24.58;42.05
59106;BME280;44891;50.204;8.132;2023-07-16T11:57:54;98244.34;;;24.48;41.76
59106;BME280;44891;50.204;8.132;2023-07-16T12:01:57;98244.59;;;24.55;41.13
59106;BME280;44891;50.204;8.132;2023-07-16T12:06:01;98231.78;;;24.39;41.30
59106;BME280;44891;50.204;8.132;2023-07-16T12:10:04;98238.00;;;24.52;41.96
59106;BME280;44891;50.204;8.132;2023-07-16T12:14:06;98240.50;;;24.28;41.59
59106;BME280;44891;50.204;8.132;2023-07-16T12:18:11;98229.13;;;24.73;42.42
59106;BME280;44891;50.204;8.132;2023-07-16T12:22:17;98233.41;;;24.86;41.11
59106;BME280;44891;50.204;8.132;2023-07-16T12:26:19;98223.75;;;25.06;41.90
59106;BME280;44891;50.204;8.132;2023-07-16T12:30:21;98222.91;;;25.38;39.96
59106;BME280;44891;50.204;8.132;2023-07-16T12:34:23;98223.03;;;25.79;39.87
59106;BME280;44891;50.204;8.132;2023-07-16T12:38:26;98232.66;;;25.31;39.79
59106;BME280;44891;50.204;8.132;2023-07-16T12:42:28;98235.59;;;25.50;40.39
59106;BME280;44891;50.204;8.132;2023-07-16T12:46:30;98227.84;;;25.61;39.21
59106;BME280;44891;50.204;8.132;2023-07-16T12:50:31;98241.53;;;25.80;39.53
59106;BME280;44891;50.204;8.132;2023-07-16T12:54:35;98230.72;;;26.17;38.05
59106;BME280;44891;50.204;8.132;2023-07-16T12:58:36;98241.00;;;26.27;36.99
59106;BME280;44891;50.204;8.132;2023-07-16T13:02:38;98228.59;;;26.22;38.07
59106;BME280;44891;50.204;8.132;2023-07-16T13:06:40;98232.09;;;26.51;39.12
59106;BME280;44891;50.204;8.132;2023-07-16T13:10:44;98236.13;;;26.17;38.73
59106;BME280;44891;50.204;8.132;2023-07-16T13:14:46;98234.16;;;25.89;38.84
59106;BME280;44891;50.204;8.132;2023-07-16T13:18:47;98238.59;;;26.10;38.96
59106;BME280;44891;50.204;8.132;2023-07-16T13:22:49;98241.31;;;26.38;38.07
59106;BME280;44891;50.204;8.132;2023-07-16T13:26:53;98237.19;;;25.75;38.16
59106;BME280;44891;50.204;8.132;2023-07-16T13:30:54;98237.91;;;26.13;38.92
59106;BME280;44891;50.204;8.132;2023-07-16T13:34:56;98207.66;;;26.03;38.69
59106;BME280;44891;50.204;8.132;2023-07-16T13:38:58;98236.44;;;26.68;37.45
59106;BME280;44891;50.204;8.132;2023-07-16T13:43:01;98240.53;;;26.77;38.63
59106;BME280;44891;50.204;8.132;2023-07-16T13:47:03;98243.28;;;26.13;37.25
59106;BME280;44891;50.204;8.132;2023-07-16T13:51:05;98236.09;;;26.29;37.62
59106;BME280;44891;50.204;8.132;2023-07-16T13:55:07;98244.25;;;26.73;36.77
59106;BME280;44891;50.204;8.132;2023-07-16T13:59:10;98235.69;;;26.15;37.27
59106;BME280;44891;50.204;8.132;2023-07-16T14:03:12;98248.69;;;25.88;38.29
59106;BME280;44891;50.204;8.132;2023-07-16T14:07:14;98234.94;;;25.78;37.72
59106;BME280;44891;50.204;8.132;2023-07-16T14:11:16;98234.84;;;26.67;37.41
59106;BME280;44891;50.204;8.132;2023-07-16T14:15:20;98231.53;;;26.58;35.57
59106;BME280;44891;50.204;8.132;2023-07-16T14:19:22;98240.72;;;26.16;36.80
59106;BME280;44891;50.204;8.132;2023-07-16T14:23:24;98234.22;;;26.05;37.84
59106;BME280;44891;50.204;8.132;2023-07-16T14:27:25;98237.38;;;25.95;37.86
59106;BME280;44891;50.204;8.132;2023-07-16T14:31:29;98222.69;;;25.92;38.83
59106;BME280;44891;50.204;8.132;2023-07-16T14:35:32;98214.47;;;26.01;37.66
59106;BME280;44891;50.204;8.132;2023-07-16T14:39:34;98223.16;;;25.82;38.44
59106;BME280;44891;50.204;8.132;2023-07-16T14:43:36;98229.66;;;25.81;38.77
59106;BME280;44891;50.204;8.132;2023-07-16T14:47:39;98223.81;;;25.67;37.95
59106;BME280;44891;50.204;8.132;2023-07-16T14:51:41;98229.06;;;26.00;38.39
59106;BME280;44891;50.204;8.132;2023-07-16T14:55:46;98191.44;;;25.75;37.26
59106;BME280;44891;50.204;8.132;2023-07-16T14:59:48;98223.69;;;26.00;37.25
59106;BME280;44891;50.204;8.132;2023-07-16T15:03:51;98215.16;;;26.10;37.68
59106;BME280;44891;50.204;8.132;2023-07-16T15:07:53;98220.34;;;26.03;37.80
59106;BME280;44891;50.204;8.132;2023-07-16T15:11:55;98215.56;;;26.24;38.53
59106;BME280;44891;50.204;8.132;2023-07-16T15:15:56;98226.84;;;26.02;37.31
59106;BME280;44891;50.204;8.132;2023-07-16T15:20:00;98223.03;;;25.79;37.56
59106;BME280;44891;50.204;8.132;2023-07-16T15:24:02;98219.06;;;26.13;38.03
59106;BME280;44891;50.204;8.132;2023-07-16T15:28:04;98214.56;;;26.29;38.08
59106;BME280;44891;50.204;8.132;2023-07-16T15:32:06;98228.78;;;25.77;37.59
59106;BME280;44891;50.204;8.132;2023-07-16T15:36:09;98222.81;;;25.84;38.00
59106;BME280;44891;50.204;8.132;2023-07-16T15:40:12;98219.63;;;26.06;38.84
59106;BME280;44891;50.204;8.132;2023-07-16T15:44:14;98224.47;;;26.00;37.60
59106;BME280;44891;50.204;8.132;2023-07-16T15:48:17;98225.38;;;25.68;37.77
59106;BME280;44891;50.204;8.132;2023-07-16T15:52:20;98218.63;;;26.11;38.05
59106;BME280;44891;50.204;8.132;2023-07-16T15:56:22;98220.91;;;26.49;37.27
59106;BME280;44891;50.204;8.132;2023-07-16T16:00:24;98212.16;;;26.40;38.53
59106;BME280;44891;50.204;8.132;2023-07-16T16:04:27;98199.41;;;26.24;38.05
59106;BME280;44891;50.204;8.132;2023-07-16T16:08:30;98205.63;;;26.00;37.91
59106;BME280;44891;50.204;8.132;2023-07-16T16:12:34;98211.28;;;25.95;37.24
59106;BME280;44891;50.204;8.132;2023-07-16T16:16:36;98202.75;;;25.81;37.36
59106;BME280;44891;50.204;8.132;2023-07-16T16:20:38;98199.84;;;25.74;38.51
59106;BME280;44891;50.204;8.132;2023-07-16T16:24:42;98196.56;;;25.93;38.28
59106;BME280;44891;50.204;8.132;2023-07-16T16:28:43;98198.00;;;26.15;38.52
59106;BME280;44891;50.204;8.132;2023-07-16T16:32:45;98192.19;;;25.88;38.09
59106;BME280;44891;50.204;8.132;2023-07-16T16:36:51;98186.50;;;25.53;37.48
59106;BME280;44891;50.204;8.132;2023-07-16T16:41:02;98187.59;;;25.28;38.35
59106;BME280;44891;50.204;8.132;2023-07-16T16:45:08;98191.78;;;25.37;38.54
59106;BME280;44891;50.204;8.132;2023-07-16T16:49:10;98192.91;;;25.36;38.01
59106;BME280;44891;50.204;8.132;2023-07-16T16:53:12;98203.50;;;25.20;38.34
59106;BME280;44891;50.204;8.132;2023-07-16T16:57:15;98192.88;;;25.12;38.41
59106;BME280;44891;50.204;8.132;2023-07-16T17:01:17;98196.34;;;25.12;38.90
59106;BME280;44891;50.204;8.132;2023-07-16T17:05:20;98201.78;;;25.04;38.89
59106;BME280;44891;50.204;8.132;2023-07-16T17:09:22;98200.25;;;25.15;38.90
59106;BME280;44891;50.204;8.132;2023-07-16T17:13:25;98203.56;;;25.00;38.46
59106;BME280;44891;50.204;8.132;2023-07-16T17:17:27;98192.53;;;24.80;39.66
59106;BME280;44891;50.204;8.132;2023-07-16T17:21:29;98203.03;;;24.73;39.04
59106;BME280;44891;50.204;8.132;2023-07-16T17:25:31;98200.50;;;24.56;39.04
59106;BME280;44891;50.204;8.132;2023-07-16T17:29:34;98206.91;;;24.51;39.60
59106;BME280;44891;50.204;8.132;2023-07-16T17:33:36;98204.94;;;24.39;40.20
59106;BME280;44891;50.204;8.132;2023-07-16T17:37:38;98206.38;;;24.37;39.88
59106;BME280;44891;50.204;8.132;2023-07-16T17:41:40;98204.66;;;24.32;38.73
59106;BME280;44891;50.204;8.132;2023-07-16T17:45:43;98208.13;;;24.12;38.98
59106;BME280;44891;50.204;8.132;2023-07-16T17:49:45;98213.41;;;24.21;39.35
59106;BME280;44891;50.204;8.132;2023-07-16T17:53:47;98214.88;;;23.97;39.29
59106;BME280;44891;50.204;8.132;2023-07-16T17:57:49;98221.47;;;24.00;39.73
59106;BME280;44891;50.204;8.132;2023-07-16T18:01:52;98222.09;;;23.97;40.19
59106;BME280;44891;50.204;8.132;2023-07-16T18:05:56;98214.34;;;23.74;39.62
59106;BME280;44891;50.204;8.132;2023-07-16T18:09:58;98220.44;;;23.83;40.41
59106;BME280;44891;50.204;8.132;2023-07-16T18:13:59;98225.22;;;23.78;40.03
59106;BME280;44891;50.204;8.132;2023-07-16T18:18:03;98226.72;;;23.58;40.68
59106;BME280;44891;50.204;8.132;2023-07-16T18:22:07;98235.50;;;23.38;41.09
59106;BME280;44891;50.204;8.132;2023-07-16T18:26:08;98233.59;;;23.38;41.09
59106;BME280;44891;50.204;8.132;2023-07-16T18:30:11;98238.34;;;23.24;40.96
59106;BME280;44891;50.204;8.132;2023-07-16T18:34:15;98237.88;;;23.22;42.17
59106;BME280;44891;50.204;8.132;2023-07-16T18:38:17;98245.31;;;23.16;42.85
59106;BME280;44891;50.204;8.132;2023-07-16T18:42:19;98240.16;;;23.02;42.43
59106;BME280;44891;50.204;8.132;2023-07-16T18:46:22;98242.84;;;22.94;43.35
59106;BME280;44891;50.204;8.132;2023-07-16T18:50:25;98238.56;;;22.84;43.41
59106;BME280;44891;50.204;8.132;2023-07-16T18:54:27;98238.13;;;22.73;44.07
59106;BME280;44891;50.204;8.132;2023-07-16T18:58:29;98245.06;;;22.57;43.91
59106;BME280;44891;50.204;8.132;2023-07-16T19:02:31;98241.94;;;22.46;45.88
59106;BME280;44891;50.204;8.132;2023-07-16T19:06:34;98245.69;;;22.19;45.95
59106;BME280;44891;50.204;8.132;2023-07-16T19:10:36;98244.97;;;21.96;47.20
59106;BME280;44891;50.204;8.132;2023-07-16T19:14:40;98248.28;;;21.93;47.06
59106;BME280;44891;50.204;8.132;2023-07-16T19:18:42;98266.69;;;21.86;49.42
59106;BME280;44891;50.204;8.132;2023-07-16T19:22:45;98255.28;;;21.63;50.06
59106;BME280;44891;50.204;8.132;2023-07-16T19:26:47;98255.34;;;21.41;48.57
59106;BME280;44891;50.204;8.132;2023-07-16T19:30:49;98265.09;;;21.45;46.75
59106;BME280;44891;50.204;8.132;2023-07-16T19:34:51;98270.88;;;21.39;48.71
59106;BME280;44891;50.204;8.132;2023-07-16T19:38:56;98277.97;;;21.43;47.86
59106;BME280;44891;50.204;8.132;2023-07-16T19:42:57;98278.09;;;21.38;48.71
59106;BME280;44891;50.204;8.132;2023-07-16T19:46:59;98293.69;;;21.14;49.68
59106;BME280;44891;50.204;8.132;2023-07-16T19:51:02;98300.03;;;21.04;49.47
59106;BME280;44891;50.204;8.132;2023-07-16T19:55:06;98304.34;;;20.91;49.50
59106;BME280;44891;50.204;8.132;2023-07-16T19:59:08;98307.63;;;20.52;52.03
59106;BME280;44891;50.204;8.132;2023-07-16T20:03:10;98320.22;;;20.24;54.98
59106;BME280;44891;50.204;8.132;2023-07-16T20:07:12;98316.28;;;20.22;54.85
59106;BME280;44891;50.204;8.132;2023-07-16T20:11:15;98318.25;;;20.16;54.45
59106;BME280;44891;50.204;8.132;2023-07-16T20:15:17;98321.41;;;20.04;55.85
59106;BME280;44891;50.204;8.132;2023-07-16T20:19:19;98321.31;;;19.82;56.42
59106;BME280;44891;50.204;8.132;2023-07-16T20:23:20;98334.91;;;19.67;57.10
59106;BME280;44891;50.204;8.132;2023-07-16T20:27:24;98329.41;;;19.31;58.87
59106;BME280;44891;50.204;8.132;2023-07-16T20:31:25;98327.69;;;19.21;58.53
59106;BME280;44891;50.204;8.132;2023-07-16T20:35:27;98324.69;;;19.09;58.08
59106;BME280;44891;50.204;8.132;2023-07-16T20:39:29;98328.72;;;19.06;59.17
59106;BME280;44891;50.204;8.132;2023-07-16T20:43:32;98322.78;;;19.28;58.88
59106;BME280;44891;50.204;8.132;2023-07-16T20:47:34;98323.53;;;19.15;58.50
59106;BME280;44891;50.204;8.132;2023-07-16T20:51:36;98337.75;;;18.91;59.32
59106;BME280;44891;50.204;8.132;2023-07-16T20:55:38;98336.41;;;18.51;60.60
59106;BME280;44891;50.204;8.132;2023-07-16T20:59:42;98325.19;;;18.54;60.43
59106;BME280;44891;50.204;8.132;2023-07-16T21:03:44;98325.84;;;18.46;60.88
59106;BME280;44891;50.204;8.132;2023-07-16T21:07:46;98331.13;;;18.27;61.60
59106;BME280;44891;50.204;8.132;2023-07-16T21:11:49;98322.31;;;18.32;61.14
59106;BME280;44891;50.204;8.132;2023-07-16T21:15:52;98329.06;;;18.24;61.53
59106;BME280;44891;50.204;8.132;2023-07-16T21:19:54;98333.34;;;18.20;61.43
59106;BME280;44891;50.204;8.132;2023-07-16T21:24:00;98330.41;;;18.21;61.89
59106;BME280;44891;50.204;8.132;2023-07-16T21:28:02;98338.34;;;18.03;62.79